createdAt,value
2017-11-08T00:00:32.536Z,32.67
2017-11-08T00:03:00.355Z,24.10
2017-11-08T00:05:28.163Z,31.90
2017-11-08T00:07:55.984Z,38.37
2017-11-08T00:10:23.804Z,28.50
2017-11-08T00:12:51.625Z,24.93
2017-11-08T00:15:19.446Z,28.95
2017-11-08T00:17:49.257Z,26.60
2017-11-08T00:20:17.087Z,26.53
2017-11-08T00:22:44.952Z,28.13
2017-11-08T00:25:12.757Z,30.73
2017-11-08T00:27:40.560Z,36.20
2017-11-08T00:30:08.385Z,33.13
2017-11-08T00:32:36.236Z,37.27
2017-11-08T00:35:04.061Z,27.13
2017-11-08T00:37:31.896Z,24.57
2017-11-08T00:39:59.720Z,19.73
2017-11-08T00:42:27.543Z,24.30
2017-11-08T00:44:55.349Z,26.10
2017-11-08T00:47:23.161Z,27.57
2017-11-08T00:49:51.009Z,25.13
2017-11-08T00:52:18.842Z,26.20
2017-11-08T00:54:46.664Z,30.80
2017-11-08T00:57:31.273Z,31.17
2017-11-08T00:59:59.117Z,33.10
2017-11-08T01:02:26.935Z,27.15
2017-11-08T01:04:54.777Z,24.70
2017-11-08T01:07:22.613Z,31.33
2017-11-08T01:09:50.448Z,29.63
2017-11-08T01:12:18.253Z,27.63
2017-11-08T01:14:46.107Z,22.33
2017-11-08T01:17:13.926Z,32.17
2017-11-08T01:19:41.740Z,23.10
2017-11-08T01:22:09.584Z,26.33
2017-11-08T01:24:37.405Z,28.60
2017-11-08T01:27:05.232Z,28.70
2017-11-08T01:29:33.041Z,21.37
2017-11-08T01:32:00.928Z,27.47
2017-11-08T01:34:28.759Z,33.53
2017-11-08T01:37:02.710Z,29.43
2017-11-08T01:39:30.528Z,34.57
2017-11-08T01:42:00.148Z,28.07
2017-11-08T01:44:28.799Z,28.27
2017-11-08T01:46:56.637Z,40.23
2017-11-08T01:49:24.469Z,31.30
2017-11-08T01:51:52.313Z,26.27
2017-11-08T01:54:20.145Z,36.13
2017-11-08T01:56:47.957Z,24.30
2017-11-08T01:59:15.781Z,33.40
2017-11-08T02:01:43.601Z,25.27
2017-11-08T02:04:11.478Z,27.10
2017-11-08T02:06:39.297Z,27.07
2017-11-08T02:09:07.130Z,28.00
2017-11-08T02:11:34.933Z,29.57
2017-11-08T02:14:02.762Z,29.50
2017-11-08T02:16:30.560Z,27.83
2017-11-08T02:19:00.288Z,32.73
2017-11-08T02:21:28.118Z,32.73
2017-11-08T02:23:55.960Z,31.33
2017-11-08T02:26:29.816Z,25.13
2017-11-08T02:28:57.658Z,24.43
2017-11-08T02:31:25.537Z,25.10
2017-11-08T02:33:53.346Z,29.70
2017-11-08T02:36:21.209Z,26.50
2017-11-08T02:38:49.049Z,27.93
2017-11-08T02:41:19.696Z,32.30
2017-11-08T02:43:47.533Z,31.73
2017-11-08T02:46:21.560Z,31.37
2017-11-08T02:48:49.374Z,32.60
2017-11-08T02:51:19.157Z,31.43
2017-11-08T02:53:53.009Z,23.40
2017-11-08T02:56:20.831Z,34.63
2017-11-08T02:58:48.670Z,44.03
2017-11-08T03:01:17.305Z,30.73
2017-11-08T03:03:45.128Z,38.00
2017-11-08T03:06:12.932Z,35.97
2017-11-08T03:08:40.744Z,35.27
2017-11-08T03:11:08.558Z,37.83
2017-11-08T03:13:36.424Z,40.07
2017-11-08T03:16:04.245Z,33.47
2017-11-08T03:18:32.097Z,37.43
2017-11-08T03:20:59.929Z,39.03
2017-11-08T03:23:27.748Z,31.87
2017-11-08T03:25:55.595Z,41.43
2017-11-08T03:28:23.429Z,33.43
2017-11-08T03:30:51.263Z,31.63
2017-11-08T03:33:19.084Z,28.63
2017-11-08T03:35:46.913Z,32.90
2017-11-08T03:38:14.732Z,44.07
2017-11-08T03:40:42.568Z,41.90
2017-11-08T03:43:10.406Z,49.47
2017-11-08T03:45:38.291Z,46.63
2017-11-08T03:48:06.134Z,48.50
2017-11-08T03:50:33.977Z,37.83
2017-11-08T03:53:01.848Z,50.43
2017-11-08T03:55:29.681Z,44.87
2017-11-08T03:57:57.508Z,40.63
2017-11-08T04:00:25.354Z,44.33
2017-11-08T04:02:53.194Z,48.90
2017-11-08T04:05:21.053Z,39.63
2017-11-08T04:07:48.896Z,48.43
2017-11-08T04:10:16.737Z,61.30
2017-11-08T04:12:44.567Z,47.53
2017-11-08T04:15:12.471Z,46.67
2017-11-08T04:17:40.304Z,52.43
2017-11-08T04:20:08.114Z,42.50
2017-11-08T04:22:35.936Z,58.27
2017-11-08T04:25:03.757Z,46.70
2017-11-08T04:27:31.657Z,52.07
2017-11-08T04:29:59.464Z,56.37
2017-11-08T04:32:27.302Z,54.10
2017-11-08T04:34:55.892Z,56.53
2017-11-08T04:37:23.724Z,62.17
2017-11-08T04:39:51.561Z,67.97
2017-11-08T04:42:19.365Z,65.80
2017-11-08T04:44:47.184Z,64.13
2017-11-08T04:47:15.020Z,64.90
2017-11-08T04:49:42.846Z,59.73
2017-11-08T04:52:10.702Z,84.13
2017-11-08T04:54:38.541Z,66.63
2017-11-08T04:57:06.385Z,83.97
2017-11-08T04:59:34.219Z,74.13
2017-11-08T05:02:02.055Z,77.53
2017-11-08T05:04:29.885Z,83.80
2017-11-08T05:06:57.698Z,100.53
2017-11-08T05:09:25.593Z,83.33
2017-11-08T05:11:53.414Z,84.10
2017-11-08T05:14:21.293Z,85.90
2017-11-08T05:16:49.110Z,98.33
2017-11-08T05:19:16.937Z,94.00
2017-11-08T05:21:44.761Z,99.03
2017-11-08T05:24:12.593Z,99.60
2017-11-08T05:26:40.426Z,93.60
2017-11-08T05:29:08.258Z,99.10
2017-11-08T05:31:36.081Z,89.10
2017-11-08T05:34:03.940Z,87.30
2017-11-08T05:36:31.780Z,109.40
2017-11-08T05:38:59.601Z,89.47
2017-11-08T05:41:27.413Z,106.90
2017-11-08T05:43:55.225Z,98.80
2017-11-08T05:46:23.070Z,107.53
2017-11-08T05:48:50.901Z,110.87
2017-11-08T05:51:18.733Z,97.87
2017-11-08T05:53:46.557Z,96.40
2017-11-08T05:56:14.388Z,94.23
2017-11-08T05:58:42.217Z,100.03
2017-11-08T06:01:10.058Z,109.87
2017-11-08T06:03:37.897Z,109.37
2017-11-08T06:06:05.742Z,107.53
2017-11-08T06:08:33.553Z,114.37
2017-11-08T06:11:01.393Z,106.10
2017-11-08T06:13:29.212Z,119.07
2017-11-08T06:15:57.042Z,105.77
2017-11-08T06:18:25.969Z,111.17
2017-11-08T06:20:53.788Z,95.73
2017-11-08T06:23:21.621Z,103.57
2017-11-08T06:25:49.449Z,102.77
2017-11-08T06:28:17.350Z,103.33
2017-11-08T06:30:45.161Z,139.20
2017-11-08T06:33:12.984Z,112.10
2017-11-08T06:35:40.844Z,96.70
2017-11-08T06:38:08.688Z,100.07
2017-11-08T06:40:36.524Z,114.17
2017-11-08T06:43:04.361Z,101.53
2017-11-08T06:45:32.614Z,89.40
2017-11-08T06:48:34.707Z,99.40
2017-11-08T06:51:02.573Z,98.90
2017-11-08T06:53:32.181Z,103.90
2017-11-08T06:56:06.341Z,102.63
2017-11-08T06:58:34.266Z,93.30
2017-11-08T07:01:02.109Z,95.93
2017-11-08T07:06:36.233Z,94.30
2017-11-08T07:09:05.140Z,83.87
2017-11-08T07:11:32.953Z,91.70
2017-11-08T07:14:00.794Z,92.37
2017-11-08T07:16:28.622Z,91.50
2017-11-08T07:18:56.509Z,74.93
2017-11-08T07:21:24.357Z,108.53
2017-11-08T07:23:52.237Z,76.10
2017-11-08T07:26:20.104Z,93.13
2017-11-08T07:28:47.935Z,97.07
2017-11-08T07:31:15.771Z,80.33
2017-11-08T07:33:43.592Z,98.10
2017-11-08T07:36:11.418Z,87.77
2017-11-08T07:38:39.240Z,82.90
2017-11-08T07:41:07.101Z,86.40
2017-11-08T07:43:34.933Z,83.60
2017-11-08T07:46:02.844Z,85.07
2017-11-08T07:48:35.720Z,95.83
2017-11-08T07:51:04.794Z,84.77
2017-11-08T07:56:22.311Z,97.93
2017-11-08T07:58:50.576Z,90.40
2017-11-08T08:01:18.598Z,92.37
2017-11-08T08:03:46.432Z,84.23
2017-11-08T08:06:14.255Z,102.73
2017-11-08T08:08:42.077Z,95.07
2017-11-08T08:11:20.815Z,88.07
2017-11-08T08:13:48.649Z,85.67
2017-11-08T08:16:16.471Z,94.33
2017-11-08T08:18:44.287Z,83.07
2017-11-08T08:21:14.903Z,113.90
2017-11-08T08:23:42.737Z,88.27
2017-11-08T08:26:10.549Z,101.53
2017-11-08T08:28:38.395Z,99.20
2017-11-08T08:31:06.210Z,101.23
2017-11-08T08:33:34.039Z,94.87
2017-11-08T08:36:01.841Z,93.20
2017-11-08T08:38:29.661Z,105.90
2017-11-08T08:40:57.500Z,97.50
2017-11-08T08:43:25.333Z,99.83
2017-11-08T08:45:53.152Z,104.00
2017-11-08T08:48:21.027Z,102.10
2017-11-08T08:50:48.864Z,96.30
2017-11-08T08:53:22.129Z,103.80
2017-11-08T08:55:49.969Z,97.10
2017-11-08T08:58:17.794Z,110.07
2017-11-08T09:00:45.615Z,102.93
2017-11-08T09:03:13.433Z,87.00
2017-11-08T09:05:48.102Z,103.60
2017-11-08T09:08:15.901Z,100.07
2017-11-08T09:10:43.737Z,102.30
2017-11-08T09:13:11.553Z,102.57
2017-11-08T09:15:39.401Z,115.33
2017-11-08T09:18:07.227Z,107.53
2017-11-08T09:20:35.076Z,120.80
2017-11-08T09:23:02.876Z,104.47
2017-11-08T09:25:30.693Z,104.77
2017-11-08T09:27:58.501Z,117.60
2017-11-08T09:30:29.279Z,102.47
2017-11-08T09:32:57.126Z,109.10
2017-11-08T09:35:24.975Z,105.27
2017-11-08T09:37:52.832Z,121.20
2017-11-08T09:40:22.589Z,118.13
2017-11-08T09:42:50.456Z,109.87
2017-11-08T09:45:19.256Z,112.37
2017-11-08T09:47:47.086Z,122.80
2017-11-08T09:50:14.905Z,110.40
2017-11-08T09:52:42.778Z,109.17
2017-11-08T09:55:10.600Z,106.80
2017-11-08T09:57:38.422Z,126.70
2017-11-08T10:00:06.242Z,119.00
2017-11-08T10:02:34.082Z,121.53
2017-11-08T10:05:01.929Z,113.07
2017-11-08T10:07:29.784Z,113.37
2017-11-08T10:09:57.617Z,110.90
2017-11-08T10:12:30.391Z,124.83
2017-11-08T10:14:58.247Z,113.67
2017-11-08T10:17:26.083Z,109.77
2017-11-08T10:19:56.922Z,113.07
2017-11-08T10:22:25.708Z,127.13
2017-11-08T10:24:53.579Z,119.33
2017-11-08T10:27:21.426Z,122.20
2017-11-08T10:29:49.272Z,104.00
2017-11-08T10:32:18.929Z,116.93
2017-11-08T10:34:46.793Z,118.73
2017-11-08T10:37:14.632Z,124.37
2017-11-08T10:39:42.474Z,102.67
2017-11-08T10:42:14.262Z,113.67
2017-11-08T10:44:42.113Z,119.10
2017-11-08T10:47:09.971Z,118.53
2017-11-08T10:49:40.885Z,108.63
2017-11-08T10:52:09.192Z,115.60
2017-11-08T10:54:37.566Z,110.87
2017-11-08T10:57:05.501Z,114.80
2017-11-08T10:59:39.499Z,113.97
2017-11-08T11:02:07.346Z,104.30
2017-11-08T11:04:35.145Z,104.23
2017-11-08T11:07:02.962Z,128.10
2017-11-08T11:09:30.778Z,118.60
2017-11-08T11:11:58.609Z,103.90
2017-11-08T11:14:26.434Z,97.80
2017-11-08T11:16:54.250Z,107.33
2017-11-08T11:19:22.054Z,100.40
2017-11-08T11:21:55.874Z,104.67
2017-11-08T11:24:24.538Z,121.53
2017-11-08T11:26:58.510Z,111.43
2017-11-08T11:29:26.329Z,115.63
2017-11-08T11:31:56.142Z,122.43
2017-11-08T11:34:23.998Z,114.07
2017-11-08T11:36:51.835Z,113.50
2017-11-08T11:39:19.662Z,100.73
2017-11-08T11:41:47.625Z,111.40
2017-11-08T11:44:15.649Z,110.30
2017-11-08T11:46:43.466Z,109.23
2017-11-08T11:49:11.303Z,106.30
2017-11-08T11:51:39.126Z,126.87
2017-11-08T11:54:06.962Z,111.27
2017-11-08T11:56:34.792Z,103.10
2017-11-08T11:59:02.618Z,107.53
2017-11-08T12:01:30.440Z,101.60
2017-11-08T12:03:58.255Z,116.80
2017-11-08T12:06:26.090Z,105.77
2017-11-08T12:08:53.923Z,94.23
2017-11-08T12:11:21.799Z,100.73
2017-11-08T12:13:49.658Z,93.27
2017-11-08T12:16:17.489Z,98.77
2017-11-08T12:18:45.314Z,92.97
2017-11-08T12:21:13.135Z,92.13
2017-11-08T12:23:40.955Z,86.33
2017-11-08T12:26:08.787Z,79.50
2017-11-08T12:28:42.562Z,86.73
2017-11-08T12:31:10.390Z,95.77
2017-11-08T12:33:38.210Z,82.43
2017-11-08T12:36:06.030Z,85.70
2017-11-08T12:38:36.798Z,103.13
2017-11-08T12:41:04.626Z,89.47
2017-11-08T12:43:32.459Z,88.83
2017-11-08T12:46:00.301Z,85.57
2017-11-08T12:48:28.170Z,85.70
2017-11-08T12:50:56.014Z,88.53
2017-11-08T12:53:23.822Z,75.80
2017-11-08T12:55:51.651Z,89.10
2017-11-08T12:58:19.481Z,87.23
2017-11-08T13:00:47.299Z,81.10
2017-11-08T13:03:15.134Z,83.30
2017-11-08T13:05:42.963Z,71.37
2017-11-08T13:08:10.781Z,69.10
2017-11-08T13:10:44.771Z,80.97
2017-11-08T13:13:12.596Z,77.97
2017-11-08T13:15:40.464Z,91.87
2017-11-08T13:18:08.318Z,79.73
2017-11-08T13:20:36.138Z,71.57
2017-11-08T13:23:03.963Z,94.00
2017-11-08T13:25:31.814Z,70.43
2017-11-08T13:27:59.637Z,75.13
2017-11-08T13:30:27.458Z,72.77
2017-11-08T13:32:55.293Z,79.60
2017-11-08T13:35:23.113Z,72.07
2017-11-08T13:37:50.949Z,81.17
2017-11-08T13:40:18.768Z,76.03
2017-11-08T13:42:46.612Z,76.13
2017-11-08T13:45:14.449Z,78.30
2017-11-08T13:47:42.297Z,77.53
2017-11-08T13:50:10.122Z,63.80
2017-11-08T13:52:37.973Z,62.40
2017-11-08T13:55:05.798Z,68.63
2017-11-08T13:57:33.645Z,62.57
2017-11-08T14:00:01.475Z,77.60
2017-11-08T14:02:29.324Z,90.83
2017-11-08T14:04:57.147Z,61.13
2017-11-08T14:07:24.961Z,61.63
2017-11-08T14:09:52.791Z,68.70
2017-11-08T14:12:20.645Z,63.23
2017-11-08T14:14:48.502Z,68.17
2017-11-08T14:17:16.351Z,69.27
2017-11-08T14:19:44.174Z,78.00
2017-11-08T14:22:11.995Z,71.43
2017-11-08T14:24:39.820Z,63.87
2017-11-08T14:27:07.642Z,64.33
2017-11-08T14:29:35.470Z,70.40
2017-11-08T14:32:03.306Z,76.60
2017-11-08T14:34:31.147Z,68.70
2017-11-08T14:36:58.954Z,76.70
2017-11-08T14:39:26.802Z,68.97
2017-11-08T14:41:54.641Z,68.47
2017-11-08T14:44:22.491Z,64.77
2017-11-08T14:46:50.301Z,77.93
2017-11-08T14:49:18.116Z,77.50
2017-11-08T14:51:45.954Z,62.40
2017-11-08T14:54:13.780Z,62.03
2017-11-08T14:56:41.622Z,62.57
2017-11-08T14:59:09.456Z,65.37
2017-11-08T15:01:37.281Z,66.17
2017-11-08T15:04:05.101Z,64.13
2017-11-08T15:06:32.958Z,69.53
2017-11-08T15:09:00.786Z,73.33
2017-11-08T15:11:28.649Z,73.10
2017-11-08T15:13:56.513Z,63.50
2017-11-08T15:16:24.351Z,74.60
2017-11-08T15:18:52.203Z,72.03
2017-11-08T15:21:20.033Z,69.57
2017-11-08T15:23:47.874Z,80.20
2017-11-08T15:26:15.701Z,67.80
2017-11-08T15:28:43.539Z,83.50
2017-11-08T15:31:11.386Z,80.80
2017-11-08T15:33:39.253Z,72.53
2017-11-08T15:36:07.082Z,83.87
2017-11-08T15:38:34.907Z,71.87
2017-11-08T15:41:02.759Z,77.17
2017-11-08T15:43:30.594Z,87.27
2017-11-08T15:45:58.459Z,76.63
2017-11-08T15:48:26.302Z,77.70
2017-11-08T15:50:54.130Z,82.20
2017-11-08T15:53:22.004Z,68.67
2017-11-08T15:55:49.818Z,80.37
2017-11-08T15:58:17.661Z,77.70
2017-11-08T16:00:45.489Z,81.53
2017-11-08T16:03:13.356Z,78.87
2017-11-08T16:05:41.196Z,76.33
2017-11-08T16:08:15.223Z,75.57
2017-11-08T16:10:43.053Z,87.87
2017-11-08T16:13:10.881Z,80.23
2017-11-08T16:15:38.733Z,77.30
2017-11-08T16:18:06.578Z,84.77
2017-11-08T16:20:34.407Z,72.23
2017-11-08T16:23:02.258Z,76.53
2017-11-08T16:25:30.086Z,76.10
2017-11-08T16:27:57.934Z,88.67
2017-11-08T16:30:25.756Z,86.37
2017-11-08T16:32:53.614Z,90.50
2017-11-08T16:35:21.466Z,82.23
2017-11-08T16:37:49.331Z,71.73
2017-11-08T16:40:17.197Z,88.27
2017-11-08T16:42:45.080Z,92.37
2017-11-08T16:45:12.915Z,73.47
2017-11-08T16:47:40.753Z,79.40
2017-11-08T16:50:08.611Z,71.57
2017-11-08T16:52:36.463Z,72.20
2017-11-08T16:55:04.304Z,79.27
2017-11-08T16:57:32.163Z,68.43
2017-11-08T17:00:00.014Z,69.13
2017-11-08T17:02:27.855Z,74.90
2017-11-08T17:04:55.673Z,72.47
2017-11-08T17:07:23.497Z,77.87
2017-11-08T17:09:51.334Z,67.43
2017-11-08T17:12:19.166Z,69.93
2017-11-08T17:14:47.004Z,68.63
2017-11-08T17:17:14.827Z,72.87
2017-11-08T17:19:42.681Z,70.10
2017-11-08T17:22:10.514Z,81.83
2017-11-08T17:24:38.349Z,70.53
2017-11-08T17:27:06.176Z,79.20
2017-11-08T17:29:34.002Z,82.47
2017-11-08T17:32:01.848Z,76.37
2017-11-08T17:34:29.668Z,80.57
2017-11-08T17:36:57.492Z,80.17
2017-11-08T17:39:25.302Z,82.97
2017-11-08T17:41:53.144Z,80.97
2017-11-08T17:44:20.951Z,81.80
2017-11-08T17:46:48.779Z,78.67
2017-11-08T17:49:16.609Z,80.50
2017-11-08T17:51:44.473Z,92.23
2017-11-08T17:54:12.317Z,92.07
2017-11-08T17:56:40.124Z,81.67
2017-11-08T17:59:07.945Z,79.37
2017-11-08T18:01:35.829Z,80.57
2017-11-08T18:04:03.652Z,86.80
2017-11-08T18:06:31.484Z,84.07
2017-11-08T18:08:59.313Z,86.60
2017-11-08T18:11:27.150Z,91.40
2017-11-08T18:13:54.976Z,89.67
2017-11-08T18:16:22.801Z,82.73
2017-11-08T18:18:50.649Z,97.70
2017-11-08T18:21:18.465Z,88.67
2017-11-08T18:23:46.306Z,94.83
2017-11-08T18:26:14.141Z,90.37
2017-11-08T18:28:41.958Z,87.97
2017-11-08T18:31:09.779Z,96.03
2017-11-08T18:33:37.680Z,91.33
2017-11-08T18:36:05.492Z,89.80
2017-11-08T18:38:33.322Z,100.63
2017-11-08T18:41:01.123Z,85.50
2017-11-08T18:43:28.980Z,95.20
2017-11-08T18:45:56.810Z,105.20
2017-11-08T18:48:24.621Z,99.93
2017-11-08T18:50:52.478Z,93.40
2017-11-08T18:53:20.306Z,82.70
2017-11-08T18:55:48.113Z,82.73
2017-11-08T18:58:15.980Z,104.27
2017-11-08T19:00:43.802Z,93.67
2017-11-08T19:03:11.882Z,98.50
2017-11-08T19:05:39.739Z,96.83
2017-11-08T19:08:07.562Z,113.97
2017-11-08T19:10:35.433Z,89.23
2017-11-08T19:13:03.266Z,90.03
2017-11-08T19:15:31.078Z,95.37
2017-11-08T19:17:58.900Z,107.33
2017-11-08T19:20:26.738Z,107.70
2017-11-08T19:22:54.550Z,93.20
2017-11-08T19:25:22.373Z,98.13
2017-11-08T19:27:50.209Z,106.17
2017-11-08T19:30:18.048Z,98.93
2017-11-08T19:32:45.870Z,105.40
2017-11-08T19:35:13.721Z,98.57
2017-11-08T19:37:41.546Z,117.10
2017-11-08T19:40:09.374Z,94.57
2017-11-08T19:42:37.189Z,105.17
2017-11-08T19:45:05.027Z,104.07
2017-11-08T19:47:32.847Z,106.60
2017-11-08T19:50:00.679Z,111.30
2017-11-08T19:52:28.503Z,108.07
2017-11-08T19:54:56.318Z,114.33
2017-11-08T19:57:24.222Z,111.23
2017-11-08T19:59:52.331Z,107.23
2017-11-08T20:02:20.243Z,98.20
2017-11-08T20:04:48.201Z,107.57
2017-11-08T20:07:16.063Z,109.93
2017-11-08T20:09:43.959Z,106.00
2017-11-08T20:12:11.839Z,105.77
2017-11-08T20:14:39.720Z,101.47
2017-11-08T20:17:07.608Z,111.43
2017-11-08T20:19:35.462Z,104.20
2017-11-08T20:22:03.310Z,107.53
2017-11-08T20:24:31.189Z,104.67
2017-11-08T20:26:59.055Z,111.03
2017-11-08T20:29:26.902Z,120.40
2017-11-08T20:31:54.776Z,111.10
2017-11-08T20:34:22.612Z,120.40
2017-11-08T20:36:50.439Z,119.03
2017-11-08T20:39:18.325Z,109.07
2017-11-08T20:41:46.162Z,106.53
2017-11-08T20:44:14.007Z,111.53
2017-11-08T20:46:41.870Z,113.93
2017-11-08T20:49:09.713Z,113.77
2017-11-08T20:51:37.622Z,115.93
2017-11-08T20:54:05.478Z,123.30
2017-11-08T20:56:33.364Z,110.70
2017-11-08T20:59:01.235Z,105.67
2017-11-08T21:01:29.101Z,101.97
2017-11-08T21:03:56.926Z,104.57
2017-11-08T21:06:24.734Z,105.83
2017-11-08T21:08:52.558Z,113.03
2017-11-08T21:11:20.378Z,112.83
2017-11-08T21:13:48.235Z,105.77
2017-11-08T21:16:16.054Z,110.23
2017-11-08T21:18:43.894Z,113.13
2017-11-08T21:21:11.713Z,101.57
2017-11-08T21:23:39.554Z,121.60
2017-11-08T21:26:07.367Z,119.97
2017-11-08T21:28:35.191Z,110.03
2017-11-08T21:31:03.022Z,112.10
2017-11-08T21:33:30.863Z,115.47
2017-11-08T21:35:58.682Z,116.83
2017-11-08T21:38:26.561Z,118.43
2017-11-08T21:40:54.414Z,107.27
2017-11-08T21:43:22.241Z,108.30
2017-11-08T21:45:50.070Z,110.37
2017-11-08T21:48:17.897Z,119.53
2017-11-08T21:50:45.710Z,119.27
2017-11-08T21:53:13.531Z,116.83
2017-11-08T21:55:41.377Z,117.37
2017-11-08T21:58:09.241Z,113.43
2017-11-08T22:00:37.080Z,116.57
2017-11-08T22:03:04.930Z,112.63
2017-11-08T22:05:32.753Z,112.00
2017-11-08T22:08:00.605Z,105.13
2017-11-08T22:10:28.420Z,115.20
2017-11-08T22:12:56.254Z,113.20
2017-11-08T22:15:24.098Z,122.00
2017-11-08T22:17:51.956Z,109.83
2017-11-08T22:20:19.812Z,116.50
2017-11-08T22:22:47.645Z,111.50
2017-11-08T22:25:15.477Z,112.77
2017-11-08T22:27:43.297Z,123.20
2017-11-08T22:30:11.131Z,118.33
2017-11-08T22:32:38.966Z,115.53
2017-11-08T22:35:06.820Z,106.57
2017-11-08T22:37:34.642Z,124.80
2017-11-08T22:40:02.494Z,120.23
2017-11-08T22:42:30.333Z,121.13
2017-11-08T22:44:58.182Z,104.20
2017-11-08T22:47:26.015Z,109.90
2017-11-08T22:49:53.857Z,110.77
2017-11-08T22:52:21.697Z,113.63
2017-11-08T22:54:49.546Z,113.03
2017-11-08T22:57:17.357Z,110.70
2017-11-08T22:59:45.180Z,117.37
2017-11-08T23:02:13.012Z,116.67
2017-11-08T23:04:40.868Z,122.10
2017-11-08T23:07:08.686Z,122.13
2017-11-08T23:09:36.526Z,118.47
2017-11-08T23:12:04.353Z,119.27
2017-11-08T23:14:32.165Z,114.10
2017-11-08T23:16:59.994Z,122.53
2017-11-08T23:19:27.850Z,119.90
2017-11-08T23:21:55.702Z,126.47
2017-11-08T23:24:23.525Z,111.27
2017-11-08T23:26:51.359Z,113.10
2017-11-08T23:29:19.203Z,122.23
2017-11-08T23:31:47.053Z,125.17
2017-11-08T23:34:14.877Z,118.70
2017-11-08T23:36:42.713Z,116.10
2017-11-08T23:39:10.574Z,115.73
2017-11-08T23:41:38.413Z,111.63
2017-11-08T23:44:06.254Z,107.73
2017-11-08T23:46:34.090Z,114.33
2017-11-08T23:49:01.917Z,118.97
2017-11-08T23:51:29.819Z,118.13
2017-11-08T23:54:00.523Z,115.63
2017-11-08T23:56:31.338Z,105.77
2017-11-08T23:58:59.183Z,116.93
